Terminal Aerodrome Forecast
Issued by NWS

Home | Current Version | Previous Version | Text Only | Print | Product List | Glossary On
Versions: 1 2 3 4 5 6 7 8 9 10 11 12 13 14 15 16 17 18 19 20 21 22 23 24
000
FTUS43 KDLH 311144
TAFHYR
TAF
KHYR 311144Z 3112/0112 04007KT P6SM VCSH BKN100
      TEMPO 3112/3116 5SM -SHRA BR BKN050
     FM311600 12011G17KT 5SM -SHRA BR SCT020 OVC050
     FM311900 14008G16KT 4SM -SHRA BR VCTS SCT015 BKN025CB
     FM010200 16005KT 5SM BR VCTS OVC015CB
     FM010600 19004KT P6SM SCT025 BKN080=

USA.gov is the U.S. government's official web portal to all federal, state and local government web resources and services.